createdAt,value
2022-11-24T00:01:07.312Z,7.96
2022-11-24T00:03:34.400Z,8.00
2022-11-24T00:06:15.185Z,7.98
2022-11-24T00:08:44.192Z,8.01
2022-11-24T00:11:13.725Z,8.04
2022-11-24T00:13:40.503Z,8.04
2022-11-24T00:16:24.251Z,8.01
2022-11-24T00:18:53.080Z,8.07
2022-11-24T00:21:20.565Z,8.09
2022-11-24T00:23:47.724Z,8.10
2022-11-24T00:26:16.606Z,8.11
2022-11-24T00:28:44.389Z,8.11
2022-11-24T00:31:35.377Z,8.05
2022-11-24T00:34:04.508Z,8.10
2022-11-24T00:36:32.844Z,8.13
2022-11-24T00:39:01.403Z,8.12
2022-11-24T00:41:28.958Z,8.13
2022-11-24T00:43:56.307Z,8.13
2022-11-24T00:46:25.183Z,8.12
2022-11-24T00:48:52.268Z,8.13
2022-11-24T00:51:20.761Z,8.15
2022-11-24T00:53:47.476Z,8.14
2022-11-24T00:56:14.384Z,8.14
2022-11-24T00:58:41.234Z,8.13
2022-11-24T01:01:11.588Z,8.13
2022-11-24T01:03:38.580Z,8.14
2022-11-24T01:06:12.242Z,8.13
2022-11-24T01:08:39.859Z,8.13
2022-11-24T01:11:07.571Z,8.14
2022-11-24T01:13:34.264Z,8.10
2022-11-24T01:16:00.983Z,8.09
2022-11-24T01:18:27.672Z,8.07
2022-11-24T01:20:54.417Z,8.09
2022-11-24T01:23:21.115Z,8.09
2022-11-24T01:25:47.786Z,8.09
2022-11-24T01:28:14.535Z,8.08
2022-11-24T01:30:41.284Z,8.08
2022-11-24T01:33:08.035Z,8.09
2022-11-24T01:35:34.711Z,8.10
2022-11-24T01:38:01.473Z,8.10
2022-11-24T01:40:28.134Z,8.11
2022-11-24T01:42:54.848Z,8.11
2022-11-24T01:45:41.059Z,8.03
2022-11-24T01:48:23.201Z,8.07
2022-11-24T01:51:05.445Z,8.05
2022-11-24T01:53:32.164Z,8.05
2022-11-24T01:55:59.156Z,8.04
2022-11-24T01:58:27.530Z,8.05
2022-11-24T02:00:54.251Z,8.03
2022-11-24T02:03:25.218Z,8.05
2022-11-24T02:06:00.210Z,8.01
2022-11-24T02:08:33.619Z,8.03
2022-11-24T02:11:02.381Z,8.07
2022-11-24T02:13:29.383Z,8.08
2022-11-24T02:15:56.067Z,8.07
2022-11-24T02:18:22.881Z,8.07
2022-11-24T02:20:49.629Z,8.08
2022-11-24T02:23:22.571Z,8.10
2022-11-24T02:26:15.832Z,8.07
2022-11-24T02:28:42.589Z,8.09
2022-11-24T02:31:09.361Z,8.10
2022-11-24T02:33:36.784Z,8.11
2022-11-24T02:36:03.779Z,8.12
2022-11-24T02:38:31.907Z,8.12
2022-11-24T02:41:00.804Z,8.13
2022-11-24T02:43:28.943Z,8.13
2022-11-24T02:45:55.610Z,8.12
2022-11-24T02:48:22.345Z,8.13
2022-11-24T02:50:49.011Z,8.15
2022-11-24T02:53:15.677Z,8.16
2022-11-24T02:55:42.388Z,8.15
2022-11-24T02:58:09.019Z,8.11
2022-11-24T03:00:35.732Z,8.11
2022-11-24T03:03:02.880Z,8.12
2022-11-24T03:05:29.591Z,8.12
2022-11-24T03:07:56.402Z,8.12
2022-11-24T03:10:24.336Z,8.11
2022-11-24T03:12:51.021Z,8.10
2022-11-24T03:15:17.791Z,8.10
2022-11-24T03:17:44.659Z,8.09
2022-11-24T03:20:11.618Z,8.10
2022-11-24T03:22:38.371Z,8.08
2022-11-24T03:25:05.334Z,8.04
2022-11-24T03:27:32.022Z,7.98
2022-11-24T03:29:58.719Z,7.94
2022-11-24T03:32:25.469Z,7.90
2022-11-24T03:34:52.365Z,7.88
2022-11-24T03:37:19.129Z,7.89
2022-11-24T03:39:45.771Z,7.88
2022-11-24T03:42:12.871Z,7.92
2022-11-24T03:44:39.548Z,7.96
2022-11-24T03:47:06.212Z,7.96
2022-11-24T03:49:33.306Z,7.92
2022-11-24T03:52:03.873Z,7.92
2022-11-24T03:54:33.730Z,7.87
2022-11-24T03:57:00.635Z,7.80
2022-11-24T03:59:27.266Z,7.79
2022-11-24T04:01:54.015Z,7.76
2022-11-24T04:04:20.772Z,7.73
2022-11-24T04:06:47.546Z,7.73
2022-11-24T04:09:14.213Z,7.72
2022-11-24T04:11:59.553Z,7.72
2022-11-24T04:14:26.299Z,7.69
2022-11-24T04:16:52.956Z,7.69
2022-11-24T04:19:19.588Z,7.72
2022-11-24T04:21:46.269Z,7.71
2022-11-24T04:24:13.324Z,7.70
2022-11-24T04:26:40.048Z,7.75
2022-11-24T04:29:06.816Z,7.78
2022-11-24T04:31:33.565Z,7.80
2022-11-24T04:34:00.251Z,7.85
2022-11-24T04:36:26.883Z,7.88
2022-11-24T04:39:22.784Z,7.87
2022-11-24T04:41:40.729Z,7.89
2022-11-24T04:44:07.400Z,7.93
2022-11-24T04:46:34.058Z,7.96
2022-11-24T04:49:01.395Z,7.99
2022-11-24T04:51:28.055Z,8.00
2022-11-24T04:53:54.748Z,8.01
2022-11-24T04:56:21.461Z,8.03
2022-11-24T04:58:48.938Z,8.05
2022-11-24T05:01:15.631Z,8.05
2022-11-24T05:03:42.476Z,8.07
2022-11-24T05:06:09.101Z,8.08
2022-11-24T05:08:35.822Z,8.09
2022-11-24T05:11:06.452Z,8.08
2022-11-24T05:13:33.172Z,8.10
2022-11-24T05:16:01.198Z,8.12
2022-11-24T05:18:28.882Z,8.12
2022-11-24T05:20:55.775Z,8.13
2022-11-24T05:23:22.516Z,8.14
2022-11-24T05:25:49.918Z,8.15
2022-11-24T05:28:18.104Z,8.15
2022-11-24T05:30:45.396Z,8.15
2022-11-24T05:33:22.852Z,8.16
2022-11-24T05:35:50.250Z,8.17
2022-11-24T05:38:17.761Z,8.18
2022-11-24T05:40:44.729Z,8.18
2022-11-24T05:43:12.451Z,8.18
2022-11-24T05:45:39.498Z,8.20
2022-11-24T05:48:07.681Z,8.20
2022-11-24T05:50:35.215Z,8.22
2022-11-24T05:53:12.910Z,8.22
2022-11-24T05:55:41.248Z,8.21
2022-11-24T05:58:08.861Z,8.22
2022-11-24T06:00:42.754Z,8.23
2022-11-24T06:03:10.776Z,8.22
2022-11-24T06:05:37.834Z,8.23
2022-11-24T06:08:04.975Z,8.23
2022-11-24T06:10:31.699Z,8.23
2022-11-24T06:12:58.376Z,8.25
2022-11-24T06:15:25.055Z,8.24
2022-11-24T06:17:58.375Z,8.23
2022-11-24T06:20:31.194Z,8.25
2022-11-24T06:23:00.123Z,8.23
2022-11-24T06:25:28.221Z,8.24
2022-11-24T06:27:55.005Z,8.24
2022-11-24T06:30:21.657Z,8.24
2022-11-24T06:32:50.034Z,8.24
2022-11-24T06:35:16.981Z,8.24
2022-11-24T06:37:43.683Z,8.24
2022-11-24T06:40:10.644Z,8.25
2022-11-24T06:42:37.692Z,8.25
2022-11-24T06:45:08.769Z,8.25
2022-11-24T06:47:36.490Z,8.24
2022-11-24T06:50:05.190Z,8.25
2022-11-24T06:52:31.873Z,8.24
2022-11-24T06:54:58.638Z,8.24
2022-11-24T06:57:26.221Z,8.24
2022-11-24T06:59:53.008Z,8.24
2022-11-24T07:02:19.726Z,8.26
2022-11-24T07:04:46.382Z,8.26
2022-11-24T07:07:13.086Z,8.27
2022-11-24T07:09:39.764Z,8.28
2022-11-24T07:12:06.733Z,8.29
2022-11-24T07:14:33.752Z,8.29
2022-11-24T07:17:02.384Z,8.31
2022-11-24T07:19:29.121Z,8.30
2022-11-24T07:21:55.845Z,8.29
2022-11-24T07:24:22.528Z,8.30
2022-11-24T07:26:49.176Z,8.31
2022-11-24T07:29:16.007Z,8.34
2022-11-24T07:31:43.057Z,8.34
2022-11-24T07:34:09.802Z,8.37
2022-11-24T07:36:36.481Z,8.36
2022-11-24T07:39:06.391Z,8.36
2022-11-24T07:41:33.117Z,8.37
2022-11-24T07:43:59.822Z,8.38
2022-11-24T07:46:26.593Z,8.40
2022-11-24T07:48:53.285Z,8.40
2022-11-24T07:51:20.052Z,8.41
2022-11-24T07:53:46.749Z,8.42
2022-11-24T07:56:13.559Z,8.42
2022-11-24T07:58:40.554Z,8.42
2022-11-24T08:01:11.358Z,8.42
2022-11-24T08:03:38.252Z,8.45
2022-11-24T08:06:23.592Z,8.45
2022-11-24T08:08:51.752Z,8.45
2022-11-24T08:11:18.492Z,8.47
2022-11-24T08:13:45.464Z,8.43
2022-11-24T08:16:15.129Z,8.46
2022-11-24T08:18:42.123Z,8.47
2022-11-24T08:21:12.785Z,8.47
2022-11-24T08:23:39.505Z,8.47
2022-11-24T08:26:09.046Z,8.50
2022-11-24T08:28:36.446Z,8.47
2022-11-24T08:31:08.861Z,8.46
2022-11-24T08:33:35.789Z,8.49
2022-11-24T08:36:11.170Z,8.45
2022-11-24T08:38:38.462Z,8.51
2022-11-24T08:41:10.803Z,8.51
2022-11-24T08:43:37.717Z,8.53
2022-11-24T08:46:13.808Z,8.50
2022-11-24T08:48:41.442Z,8.54
2022-11-24T08:51:10.956Z,8.56
2022-11-24T08:53:37.953Z,8.58
2022-11-24T08:56:05.431Z,8.59
2022-11-24T08:58:34.035Z,8.60
2022-11-24T09:01:12.487Z,8.58
2022-11-24T09:03:42.284Z,8.63
2022-11-24T09:06:10.640Z,8.64
2022-11-24T09:08:38.056Z,8.66
2022-11-24T09:11:15.404Z,8.62
2022-11-24T09:13:42.676Z,8.67
2022-11-24T09:16:12.847Z,8.68
2022-11-24T09:18:39.807Z,8.69
2022-11-24T09:21:07.941Z,8.70
2022-11-24T09:23:34.759Z,8.71
2022-11-24T09:26:10.845Z,8.67
2022-11-24T09:28:37.805Z,8.68
2022-11-24T09:31:06.220Z,8.68
2022-11-24T09:33:33.424Z,8.71
2022-11-24T09:36:00.284Z,8.74
2022-11-24T09:38:27.364Z,8.76
2022-11-24T09:40:57.232Z,8.78
2022-11-24T09:43:38.237Z,8.79
2022-11-24T09:46:13.885Z,8.86
2022-11-24T09:48:43.991Z,8.93
2022-11-24T09:51:12.688Z,8.97
2022-11-24T09:53:49.297Z,8.97
2022-11-24T09:56:22.155Z,8.91
2022-11-24T09:59:41.918Z,8.77
2022-11-24T10:02:13.245Z,8.91
2022-11-24T10:04:45.104Z,8.80
2022-11-24T10:07:16.987Z,8.91
2022-11-24T10:09:52.861Z,8.90
2022-11-24T10:12:28.280Z,8.96
2022-11-24T10:15:12.027Z,8.99
2022-11-24T10:18:03.435Z,8.97
2022-11-24T10:20:51.729Z,8.93
2022-11-24T10:23:38.404Z,9.02
2022-11-24T10:26:08.892Z,9.02
2022-11-24T10:28:43.980Z,9.02
2022-11-24T10:31:22.732Z,9.04
2022-11-24T10:33:50.053Z,9.06
2022-11-24T10:36:25.517Z,9.04
2022-11-24T10:39:05.009Z,9.00
2022-11-24T10:42:05.740Z,8.98
2022-11-24T10:44:32.430Z,9.03
2022-11-24T10:46:59.170Z,9.05
2022-11-24T10:49:28.377Z,9.04
2022-11-24T10:52:05.857Z,8.93
2022-11-24T10:54:33.145Z,8.98
2022-11-24T10:56:59.881Z,9.01
2022-11-24T10:59:32.904Z,8.98
2022-11-24T11:02:00.033Z,8.86
2022-11-24T11:04:28.271Z,8.98
2022-11-24T11:07:09.222Z,8.95
2022-11-24T11:09:36.143Z,9.08
2022-11-24T11:12:42.553Z,9.11
2022-11-24T11:15:23.333Z,9.16
2022-11-24T11:17:52.407Z,9.29
2022-11-24T11:20:22.798Z,9.33
2022-11-24T11:27:18.686Z,9.37
2022-11-24T11:35:19.218Z,9.39
2022-11-24T11:37:47.518Z,9.41
2022-11-24T11:40:18.416Z,9.41
2022-11-24T11:43:02.229Z,9.43
2022-11-24T11:45:35.099Z,9.40
2022-11-24T11:48:01.840Z,9.45
2022-11-24T11:50:59.481Z,9.47
2022-11-24T11:53:45.982Z,9.44
2022-11-24T11:56:15.260Z,9.49
2022-11-24T11:59:06.550Z,9.49
2022-11-24T12:01:38.791Z,9.53
2022-11-24T12:04:26.027Z,9.56
2022-11-24T12:07:22.779Z,9.54
2022-11-24T12:10:16.976Z,9.61
2022-11-24T12:13:06.789Z,9.60
2022-11-24T12:15:51.414Z,9.64
2022-11-24T12:18:57.139Z,9.72
2022-11-24T12:21:26.830Z,9.73
2022-11-24T12:24:06.197Z,9.76
2022-11-24T12:26:53.612Z,9.69
2022-11-24T12:29:41.832Z,9.71
2022-11-24T12:32:43.290Z,9.75
2022-11-24T12:35:34.830Z,9.78
2022-11-24T12:38:14.976Z,9.78
2022-11-24T12:41:39.864Z,9.80
2022-11-24T12:43:52.959Z,9.84
2022-11-24T12:46:29.388Z,9.81
2022-11-24T12:49:08.485Z,9.79
2022-11-24T12:51:38.342Z,9.81
2022-11-24T12:54:10.121Z,9.82
2022-11-24T12:56:38.126Z,9.85
2022-11-24T12:59:40.034Z,9.76
2022-11-24T13:02:38.362Z,9.78
2022-11-24T13:05:20.152Z,9.78
2022-11-24T13:07:55.353Z,9.82
2022-11-24T13:13:13.006Z,9.86
2022-11-24T13:16:34.504Z,9.78
2022-11-24T13:18:56.829Z,9.78
2022-11-24T13:21:35.855Z,9.72
2022-11-24T13:24:21.232Z,9.74
2022-11-24T13:26:50.714Z,9.74
2022-11-24T13:29:52.743Z,9.65
2022-11-24T13:32:19.491Z,9.72
2022-11-24T13:34:58.064Z,9.73
2022-11-24T13:37:35.444Z,9.73
2022-11-24T13:40:12.181Z,9.67
2022-11-24T13:43:03.255Z,9.64
2022-11-24T13:45:38.868Z,9.66
2022-11-24T13:48:21.642Z,9.63
2022-11-24T13:50:54.762Z,9.51
2022-11-24T13:53:34.777Z,9.65
2022-11-24T13:56:13.181Z,9.60
2022-11-24T13:58:46.581Z,9.60
2022-11-24T14:01:28.467Z,9.54
2022-11-24T14:04:33.644Z,9.49
2022-11-24T14:07:09.781Z,9.54
2022-11-24T14:09:42.256Z,9.54
2022-11-24T14:12:17.149Z,9.53
2022-11-24T14:14:45.808Z,9.56
2022-11-24T14:17:25.032Z,9.53
2022-11-24T14:19:53.549Z,9.50
2022-11-24T14:22:36.332Z,9.40
2022-11-24T14:25:03.998Z,9.55
2022-11-24T14:27:33.161Z,9.51
2022-11-24T14:30:17.507Z,9.38
2022-11-24T14:32:55.725Z,9.34
2022-11-24T14:35:27.119Z,9.37
2022-11-24T14:37:53.958Z,9.34
2022-11-24T14:40:55.980Z,9.25
2022-11-24T14:43:32.203Z,9.33
2022-11-24T14:46:10.370Z,9.26
2022-11-24T14:48:39.041Z,9.31
2022-11-24T14:51:20.333Z,9.23
2022-11-24T14:53:49.568Z,9.23
2022-11-24T14:56:23.560Z,9.23
2022-11-24T14:58:50.609Z,9.22
2022-11-24T15:01:21.905Z,9.20
2022-11-24T15:04:13.052Z,9.07
2022-11-24T15:06:47.328Z,9.10
2022-11-24T15:09:23.988Z,9.03
2022-11-24T15:11:50.937Z,9.04
2022-11-24T15:14:33.431Z,8.94
2022-11-24T15:17:00.499Z,9.00
2022-11-24T15:19:32.618Z,9.01
2022-11-24T15:21:59.377Z,9.01
2022-11-24T15:24:26.080Z,9.03
2022-11-24T15:27:00.444Z,8.98
2022-11-24T15:29:27.207Z,9.04
2022-11-24T15:31:53.941Z,9.04
2022-11-24T15:34:20.784Z,9.01
2022-11-24T15:36:47.472Z,8.99
2022-11-24T15:39:14.160Z,8.98
2022-11-24T15:41:41.831Z,8.94
2022-11-24T15:44:09.480Z,8.91
2022-11-24T15:46:38.688Z,8.87
2022-11-24T15:49:07.549Z,8.83
2022-11-24T15:51:35.756Z,8.81
2022-11-24T15:54:02.669Z,8.81
2022-11-24T15:56:34.208Z,8.78
2022-11-24T15:59:01.459Z,8.81
2022-11-24T16:01:31.306Z,8.82
2022-11-24T16:03:58.174Z,8.81
2022-11-24T16:06:25.674Z,8.81
2022-11-24T16:08:53.695Z,8.81
2022-11-24T16:11:21.036Z,8.81
2022-11-24T16:13:52.490Z,8.79
2022-11-24T16:16:20.451Z,8.80
2022-11-24T16:18:47.179Z,8.77
2022-11-24T16:21:14.068Z,8.73
2022-11-24T16:23:40.970Z,8.73
2022-11-24T16:26:07.772Z,8.74
2022-11-24T16:28:34.594Z,8.75
2022-11-24T16:31:01.633Z,8.76
2022-11-24T16:33:29.356Z,8.77
2022-11-24T16:35:56.101Z,8.75
2022-11-24T16:38:22.831Z,8.75
2022-11-24T16:40:58.541Z,8.72
2022-11-24T16:43:25.339Z,8.73
2022-11-24T16:46:15.672Z,8.64
2022-11-24T16:48:43.096Z,8.71
2022-11-24T16:51:10.245Z,8.68
2022-11-24T16:53:37.155Z,8.64
2022-11-24T16:56:03.890Z,8.62
2022-11-24T16:58:30.604Z,8.63
2022-11-24T17:01:04.776Z,8.54
2022-11-24T17:03:38.919Z,8.57
2022-11-24T17:06:11.200Z,8.52
2022-11-24T17:08:39.967Z,8.55
2022-11-24T17:11:23.537Z,8.48
2022-11-24T17:13:50.834Z,8.48
2022-11-24T17:16:20.434Z,8.47
2022-11-24T17:18:47.195Z,8.46
2022-11-24T17:21:19.904Z,8.40
2022-11-24T17:23:46.952Z,8.33
2022-11-24T17:26:15.392Z,8.34
2022-11-24T17:28:42.244Z,8.27
2022-11-24T17:31:09.638Z,8.29
2022-11-24T17:33:36.574Z,8.24
2022-11-24T17:36:04.623Z,8.24
2022-11-24T17:38:31.301Z,8.21
2022-11-24T17:40:58.349Z,8.17
2022-11-24T17:43:25.150Z,8.14
2022-11-24T17:45:56.295Z,8.07
2022-11-24T17:48:23.469Z,8.05
2022-11-24T17:51:01.445Z,7.91
2022-11-24T17:53:31.465Z,7.97
2022-11-24T17:56:02.065Z,7.91
2022-11-24T17:58:31.878Z,7.67
2022-11-24T18:01:00.334Z,7.89
2022-11-24T18:03:32.428Z,7.89
2022-11-24T18:06:10.850Z,7.75
2022-11-24T18:08:39.017Z,7.88
2022-11-24T18:11:07.428Z,7.82
2022-11-24T18:13:55.801Z,7.82
2022-11-24T18:16:21.288Z,7.76
2022-11-24T18:18:51.075Z,7.72
2022-11-24T18:21:18.109Z,7.69
2022-11-24T18:23:47.174Z,7.69
2022-11-24T18:26:18.243Z,7.65
2022-11-24T18:28:45.588Z,7.65
2022-11-24T18:31:18.530Z,7.66
2022-11-24T18:33:45.279Z,7.61
2022-11-24T18:36:16.964Z,7.56
2022-11-24T18:38:46.066Z,7.60
2022-11-24T18:41:14.729Z,7.61
2022-11-24T18:43:42.633Z,7.60
2022-11-24T18:46:15.629Z,7.57
2022-11-24T18:48:43.168Z,7.54
2022-11-24T18:51:14.936Z,7.47
2022-11-24T18:53:43.555Z,7.41
2022-11-24T18:56:15.988Z,7.29
2022-11-24T18:58:43.306Z,7.33
2022-11-24T19:01:20.341Z,7.28
2022-11-24T19:03:49.628Z,7.32
2022-11-24T19:06:24.641Z,7.23
2022-11-24T19:08:54.218Z,7.21
2022-11-24T19:11:26.651Z,7.19
2022-11-24T19:13:53.693Z,7.17
2022-11-24T19:16:21.473Z,7.09
2022-11-24T19:18:53.683Z,7.11
2022-11-24T19:21:21.695Z,7.07
2022-11-24T19:23:48.930Z,7.08
2022-11-24T19:26:16.415Z,7.07
2022-11-24T19:28:43.573Z,7.05
2022-11-24T19:31:12.917Z,7.02
2022-11-24T19:33:40.264Z,6.98
2022-11-24T19:36:13.645Z,6.88
2022-11-24T19:38:41.206Z,6.79
2022-11-24T19:41:10.793Z,6.84
2022-11-24T19:43:37.853Z,6.93
2022-11-24T19:46:06.762Z,6.91
2022-11-24T19:48:40.700Z,6.94
2022-11-24T19:51:10.234Z,6.89
2022-11-24T19:53:38.061Z,6.86
2022-11-24T19:56:06.655Z,6.79
2022-11-24T19:58:34.114Z,6.79
2022-11-24T20:01:24.579Z,6.69
2022-11-24T20:04:00.194Z,6.64
2022-11-24T20:06:29.405Z,6.75
2022-11-24T20:08:58.412Z,6.72
2022-11-24T20:11:25.203Z,6.73
2022-11-24T20:13:52.240Z,6.69
2022-11-24T20:16:26.199Z,6.69
2022-11-24T20:18:54.674Z,6.59
2022-11-24T20:21:23.587Z,6.58
2022-11-24T20:23:57.861Z,6.50
2022-11-24T20:26:25.891Z,6.56
2022-11-24T20:28:54.558Z,6.48
2022-11-24T20:31:30.782Z,6.41
2022-11-24T20:33:57.637Z,6.46
2022-11-24T20:36:25.999Z,6.34
2022-11-24T20:38:53.183Z,6.42
2022-11-24T20:41:25.380Z,6.51
2022-11-24T20:43:53.880Z,6.48
2022-11-24T20:46:22.924Z,6.45
2022-11-24T20:48:49.904Z,6.49
2022-11-24T20:51:27.845Z,6.41
2022-11-24T20:53:57.511Z,6.47
2022-11-24T20:56:30.052Z,6.36
2022-11-24T20:58:57.361Z,6.35
2022-11-24T21:01:30.884Z,6.39
2022-11-24T21:03:59.456Z,6.43
2022-11-24T21:06:27.948Z,6.42
2022-11-24T21:09:00.489Z,6.38
2022-11-24T21:11:30.476Z,6.40
2022-11-24T21:13:57.661Z,6.32
2022-11-24T21:16:32.688Z,6.36
2022-11-24T21:19:01.415Z,6.26
2022-11-24T21:21:36.220Z,6.32
2022-11-24T21:24:09.867Z,6.24
2022-11-24T21:26:37.636Z,6.20
2022-11-24T21:29:05.200Z,6.26
2022-11-24T21:31:34.991Z,6.21
2022-11-24T21:34:01.837Z,6.39
2022-11-24T21:36:28.585Z,6.37
2022-11-24T21:38:57.077Z,6.38
2022-11-24T21:41:25.810Z,6.37
2022-11-24T21:43:55.536Z,6.41
2022-11-24T21:46:22.403Z,6.44
2022-11-24T21:48:49.312Z,6.36
2022-11-24T21:51:18.004Z,6.41
2022-11-24T21:53:45.282Z,6.45
2022-11-24T21:56:14.106Z,6.43
2022-11-24T21:58:45.796Z,6.32
2022-11-24T22:01:13.070Z,6.36
2022-11-24T22:03:39.860Z,6.29
2022-11-24T22:06:06.992Z,6.36
2022-11-24T22:08:33.962Z,6.27
2022-11-24T22:11:04.518Z,6.24
2022-11-24T22:13:31.334Z,6.30
2022-11-24T22:16:03.878Z,6.18
2022-11-24T22:18:33.027Z,6.19
2022-11-24T22:21:00.314Z,6.25
2022-11-24T22:23:27.124Z,6.23
2022-11-24T22:25:53.777Z,6.20
2022-11-24T22:28:20.509Z,6.20
2022-11-24T22:30:47.176Z,6.20
2022-11-24T22:33:13.882Z,6.22
2022-11-24T22:35:40.597Z,6.12
2022-11-24T22:38:07.329Z,6.24
2022-11-24T22:40:34.052Z,6.17
2022-11-24T22:43:00.807Z,6.19
2022-11-24T22:45:27.778Z,6.16
2022-11-24T22:47:54.995Z,6.04
2022-11-24T22:50:21.701Z,6.02
2022-11-24T22:52:50.040Z,6.11
2022-11-24T22:55:16.732Z,6.10
2022-11-24T22:57:47.981Z,6.01
2022-11-24T23:00:15.731Z,6.13
2022-11-24T23:02:42.481Z,6.04
2022-11-24T23:05:09.369Z,6.00
2022-11-24T23:07:36.107Z,6.03
2022-11-24T23:10:03.147Z,6.01
2022-11-24T23:12:29.758Z,6.00
2022-11-24T23:14:56.490Z,5.96
2022-11-24T23:17:23.269Z,5.93
2022-11-24T23:19:50.231Z,5.93
2022-11-24T23:22:16.931Z,5.92
2022-11-24T23:24:43.707Z,5.97
2022-11-24T23:27:10.410Z,5.94
2022-11-24T23:29:37.076Z,5.86
2022-11-24T23:32:07.015Z,5.83
2022-11-24T23:34:34.072Z,5.74
2022-11-24T23:37:01.027Z,5.82
2022-11-24T23:39:27.709Z,5.73
2022-11-24T23:41:54.395Z,5.68
2022-11-24T23:44:21.129Z,5.64
2022-11-24T23:46:47.898Z,5.61
2022-11-24T23:49:14.642Z,5.63
2022-11-24T23:51:42.019Z,5.68
2022-11-24T23:54:09.636Z,5.62
2022-11-24T23:56:36.691Z,5.57
2022-11-24T23:59:04.509Z,5.56
